sensor_id;sensor_type;location;lat;lon;timestamp;P1;durP1;ratioP1;P2;durP2;ratioP2
46006;SDS011;31738;50.188;8.524;2022-12-29T00:01:33;6.47;;;3.50;;
46006;SDS011;31738;50.188;8.524;2022-12-29T00:03:59;7.22;;;3.95;;
46006;SDS011;31738;50.188;8.524;2022-12-29T00:06:25;8.57;;;3.38;;
46006;SDS011;31738;50.188;8.524;2022-12-29T00:08:51;10.85;;;3.50;;
46006;SDS011;31738;50.188;8.524;2022-12-29T00:11:17;4.82;;;2.80;;
46006;SDS011;31738;50.188;8.524;2022-12-29T00:13:45;11.15;;;3.47;;
46006;SDS011;31738;50.188;8.524;2022-12-29T00:16:29;8.18;;;3.20;;
46006;SDS011;31738;50.188;8.524;2022-12-29T00:18:55;6.47;;;3.45;;
46006;SDS011;31738;50.188;8.524;2022-12-29T00:21:21;6.70;;;3.33;;
46006;SDS011;31738;50.188;8.524;2022-12-29T00:24:23;6.97;;;3.10;;
46006;SDS011;31738;50.188;8.524;2022-12-29T00:29:48;6.55;;;2.83;;
46006;SDS011;31738;50.188;8.524;2022-12-29T00:32:33;10.05;;;3.70;;
46006;SDS011;31738;50.188;8.524;2022-12-29T00:35:22;12.32;;;3.78;;
46006;SDS011;31738;50.188;8.524;2022-12-29T00:37:54;7.32;;;3.22;;
46006;SDS011;31738;50.188;8.524;2022-12-29T00:40:40;4.78;;;2.72;;
46006;SDS011;31738;50.188;8.524;2022-12-29T00:43:25;4.43;;;3.03;;
46006;SDS011;31738;50.188;8.524;2022-12-29T00:46:09;6.47;;;3.35;;
46006;SDS011;31738;50.188;8.524;2022-12-29T00:48:34;6.57;;;2.97;;
46006;SDS011;31738;50.188;8.524;2022-12-29T00:51:18;8.40;;;3.47;;
46006;SDS011;31738;50.188;8.524;2022-12-29T00:53:44;6.65;;;3.33;;
46006;SDS011;31738;50.188;8.524;2022-12-29T00:56:09;6.97;;;3.08;;
46006;SDS011;31738;50.188;8.524;2022-12-29T00:58:35;6.50;;;3.25;;
46006;SDS011;31738;50.188;8.524;2022-12-29T01:01:09;6.95;;;2.97;;
46006;SDS011;31738;50.188;8.524;2022-12-29T01:03:37;5.05;;;2.92;;
46006;SDS011;31738;50.188;8.524;2022-12-29T01:06:04;8.73;;;3.15;;
46006;SDS011;31738;50.188;8.524;2022-12-29T01:08:36;5.70;;;3.22;;
46006;SDS011;31738;50.188;8.524;2022-12-29T01:11:09;6.93;;;3.00;;
46006;SDS011;31738;50.188;8.524;2022-12-29T01:16:03;6.05;;;2.83;;
46006;SDS011;31738;50.188;8.524;2022-12-29T01:18:30;5.05;;;3.05;;
46006;SDS011;31738;50.188;8.524;2022-12-29T01:20:58;7.85;;;3.50;;
46006;SDS011;31738;50.188;8.524;2022-12-29T01:23:28;6.65;;;3.28;;
46006;SDS011;31738;50.188;8.524;2022-12-29T01:25:54;6.82;;;3.45;;
46006;SDS011;31738;50.188;8.524;2022-12-29T01:28:20;6.45;;;2.85;;
46006;SDS011;31738;50.188;8.524;2022-12-29T01:30:46;9.18;;;3.00;;
46006;SDS011;31738;50.188;8.524;2022-12-29T01:33:12;5.60;;;3.35;;
46006;SDS011;31738;50.188;8.524;2022-12-29T01:35:38;4.90;;;3.05;;
46006;SDS011;31738;50.188;8.524;2022-12-29T01:38:04;7.28;;;3.42;;
46006;SDS011;31738;50.188;8.524;2022-12-29T01:40:29;5.85;;;3.20;;
46006;SDS011;31738;50.188;8.524;2022-12-29T01:42:55;5.18;;;3.00;;
46006;SDS011;31738;50.188;8.524;2022-12-29T01:45:24;5.78;;;3.38;;
46006;SDS011;31738;50.188;8.524;2022-12-29T01:47:50;8.82;;;3.67;;
46006;SDS011;31738;50.188;8.524;2022-12-29T01:50:29;6.30;;;3.30;;
46006;SDS011;31738;50.188;8.524;2022-12-29T01:53:19;4.85;;;3.15;;
46006;SDS011;31738;50.188;8.524;2022-12-29T01:55:55;7.45;;;3.50;;
46006;SDS011;31738;50.188;8.524;2022-12-29T01:58:27;4.47;;;3.30;;
46006;SDS011;31738;50.188;8.524;2022-12-29T02:00:56;6.07;;;3.45;;
46006;SDS011;31738;50.188;8.524;2022-12-29T02:03:22;6.28;;;3.08;;
46006;SDS011;31738;50.188;8.524;2022-12-29T02:05:53;6.93;;;3.47;;
46006;SDS011;31738;50.188;8.524;2022-12-29T02:08:23;7.03;;;3.88;;
46006;SDS011;31738;50.188;8.524;2022-12-29T02:10:51;5.80;;;3.70;;
46006;SDS011;31738;50.188;8.524;2022-12-29T02:13:23;7.25;;;3.90;;
46006;SDS011;31738;50.188;8.524;2022-12-29T02:21:38;7.63;;;3.20;;
46006;SDS011;31738;50.188;8.524;2022-12-29T02:27:17;6.47;;;3.33;;
46006;SDS011;31738;50.188;8.524;2022-12-29T02:30:07;5.13;;;3.30;;
46006;SDS011;31738;50.188;8.524;2022-12-29T02:33:05;8.20;;;3.35;;
46006;SDS011;31738;50.188;8.524;2022-12-29T02:39:04;5.85;;;3.10;;
46006;SDS011;31738;50.188;8.524;2022-12-29T02:50:33;5.47;;;2.95;;
46006;SDS011;31738;50.188;8.524;2022-12-29T02:53:03;6.57;;;2.90;;
46006;SDS011;31738;50.188;8.524;2022-12-29T02:55:33;5.57;;;2.83;;
46006;SDS011;31738;50.188;8.524;2022-12-29T02:58:21;5.65;;;2.72;;
46006;SDS011;31738;50.188;8.524;2022-12-29T03:03:56;4.28;;;2.50;;
46006;SDS011;31738;50.188;8.524;2022-12-29T03:06:56;7.18;;;2.65;;
46006;SDS011;31738;50.188;8.524;2022-12-29T03:15:34;4.13;;;2.00;;
46006;SDS011;31738;50.188;8.524;2022-12-29T03:21:02;3.78;;;2.22;;
46006;SDS011;31738;50.188;8.524;2022-12-29T03:23:33;5.13;;;2.40;;
46006;SDS011;31738;50.188;8.524;2022-12-29T03:26:01;5.95;;;2.88;;
46006;SDS011;31738;50.188;8.524;2022-12-29T03:28:32;5.35;;;2.50;;
46006;SDS011;31738;50.188;8.524;2022-12-29T03:31:01;3.35;;;2.40;;
46006;SDS011;31738;50.188;8.524;2022-12-29T03:33:29;3.53;;;2.58;;
46006;SDS011;31738;50.188;8.524;2022-12-29T03:36:02;4.32;;;2.55;;
46006;SDS011;31738;50.188;8.524;2022-12-29T03:38:34;7.60;;;2.92;;
46006;SDS011;31738;50.188;8.524;2022-12-29T03:41:05;3.83;;;2.42;;
46006;SDS011;31738;50.188;8.524;2022-12-29T03:43:34;3.60;;;2.83;;
46006;SDS011;31738;50.188;8.524;2022-12-29T03:46:00;4.28;;;2.63;;
46006;SDS011;31738;50.188;8.524;2022-12-29T03:48:26;3.70;;;2.45;;
46006;SDS011;31738;50.188;8.524;2022-12-29T03:50:53;4.82;;;2.65;;
46006;SDS011;31738;50.188;8.524;2022-12-29T03:53:19;4.15;;;2.85;;
46006;SDS011;31738;50.188;8.524;2022-12-29T03:55:45;6.75;;;3.20;;
46006;SDS011;31738;50.188;8.524;2022-12-29T03:58:10;7.68;;;2.85;;
46006;SDS011;31738;50.188;8.524;2022-12-29T04:01:02;4.57;;;2.85;;
46006;SDS011;31738;50.188;8.524;2022-12-29T04:03:31;8.23;;;3.40;;
46006;SDS011;31738;50.188;8.524;2022-12-29T04:05:56;7.70;;;2.97;;
46006;SDS011;31738;50.188;8.524;2022-12-29T04:08:22;6.75;;;3.05;;
46006;SDS011;31738;50.188;8.524;2022-12-29T04:10:48;8.18;;;3.35;;
46006;SDS011;31738;50.188;8.524;2022-12-29T04:13:15;6.80;;;3.00;;
46006;SDS011;31738;50.188;8.524;2022-12-29T04:15:42;8.25;;;3.17;;
46006;SDS011;31738;50.188;8.524;2022-12-29T04:18:08;10.25;;;3.50;;
46006;SDS011;31738;50.188;8.524;2022-12-29T04:23:45;6.75;;;3.00;;
46006;SDS011;31738;50.188;8.524;2022-12-29T04:26:12;8.35;;;3.00;;
46006;SDS011;31738;50.188;8.524;2022-12-29T04:28:48;4.57;;;3.00;;
46006;SDS011;31738;50.188;8.524;2022-12-29T04:31:46;4.25;;;2.67;;
46006;SDS011;31738;50.188;8.524;2022-12-29T04:34:12;9.02;;;2.92;;
46006;SDS011;31738;50.188;8.524;2022-12-29T04:36:38;11.75;;;3.10;;
46006;SDS011;31738;50.188;8.524;2022-12-29T04:39:05;7.85;;;3.00;;
46006;SDS011;31738;50.188;8.524;2022-12-29T04:41:32;7.53;;;2.97;;
46006;SDS011;31738;50.188;8.524;2022-12-29T04:43:58;6.75;;;3.22;;
46006;SDS011;31738;50.188;8.524;2022-12-29T04:46:47;10.00;;;3.30;;
46006;SDS011;31738;50.188;8.524;2022-12-29T04:49:27;7.47;;;3.72;;
46006;SDS011;31738;50.188;8.524;2022-12-29T04:52:08;5.55;;;3.08;;
46006;SDS011;31738;50.188;8.524;2022-12-29T04:54:36;5.68;;;3.20;;
46006;SDS011;31738;50.188;8.524;2022-12-29T04:57:08;7.60;;;3.33;;
46006;SDS011;31738;50.188;8.524;2022-12-29T04:59:36;5.70;;;3.50;;
46006;SDS011;31738;50.188;8.524;2022-12-29T05:02:02;10.05;;;3.75;;
46006;SDS011;31738;50.188;8.524;2022-12-29T05:04:28;7.65;;;3.60;;
46006;SDS011;31738;50.188;8.524;2022-12-29T05:06:53;10.80;;;3.28;;
46006;SDS011;31738;50.188;8.524;2022-12-29T05:09:19;6.53;;;3.35;;
46006;SDS011;31738;50.188;8.524;2022-12-29T05:11:45;7.43;;;3.22;;
46006;SDS011;31738;50.188;8.524;2022-12-29T05:14:10;6.47;;;3.55;;
46006;SDS011;31738;50.188;8.524;2022-12-29T05:16:37;6.22;;;3.28;;
46006;SDS011;31738;50.188;8.524;2022-12-29T05:19:02;6.93;;;3.55;;
46006;SDS011;31738;50.188;8.524;2022-12-29T05:21:29;5.43;;;3.20;;
46006;SDS011;31738;50.188;8.524;2022-12-29T05:23:55;8.05;;;3.10;;
46006;SDS011;31738;50.188;8.524;2022-12-29T05:26:22;4.70;;;3.08;;
46006;SDS011;31738;50.188;8.524;2022-12-29T05:29:08;5.15;;;3.30;;
46006;SDS011;31738;50.188;8.524;2022-12-29T05:31:34;8.63;;;3.22;;
46006;SDS011;31738;50.188;8.524;2022-12-29T05:34:01;7.05;;;2.83;;
46006;SDS011;31738;50.188;8.524;2022-12-29T05:36:30;4.38;;;2.80;;
46006;SDS011;31738;50.188;8.524;2022-12-29T05:38:58;6.05;;;2.90;;
46006;SDS011;31738;50.188;8.524;2022-12-29T05:41:24;8.88;;;3.53;;
46006;SDS011;31738;50.188;8.524;2022-12-29T05:44:04;7.82;;;3.05;;
46006;SDS011;31738;50.188;8.524;2022-12-29T05:46:42;7.70;;;3.42;;
46006;SDS011;31738;50.188;8.524;2022-12-29T05:49:18;9.00;;;3.38;;
46006;SDS011;31738;50.188;8.524;2022-12-29T05:51:54;7.25;;;3.22;;
46006;SDS011;31738;50.188;8.524;2022-12-29T05:54:21;6.32;;;3.45;;
46006;SDS011;31738;50.188;8.524;2022-12-29T05:56:46;7.47;;;3.70;;
46006;SDS011;31738;50.188;8.524;2022-12-29T05:59:12;10.23;;;3.95;;
46006;SDS011;31738;50.188;8.524;2022-12-29T06:01:38;7.43;;;3.10;;
46006;SDS011;31738;50.188;8.524;2022-12-29T06:04:03;6.30;;;3.65;;
46006;SDS011;31738;50.188;8.524;2022-12-29T06:06:30;7.07;;;3.38;;
46006;SDS011;31738;50.188;8.524;2022-12-29T06:08:56;10.20;;;3.78;;
46006;SDS011;31738;50.188;8.524;2022-12-29T06:11:23;6.25;;;3.63;;
46006;SDS011;31738;50.188;8.524;2022-12-29T06:13:53;7.88;;;3.50;;
46006;SDS011;31738;50.188;8.524;2022-12-29T06:16:18;7.05;;;3.25;;
46006;SDS011;31738;50.188;8.524;2022-12-29T06:18:44;5.85;;;3.80;;
46006;SDS011;31738;50.188;8.524;2022-12-29T06:21:10;5.80;;;3.20;;
46006;SDS011;31738;50.188;8.524;2022-12-29T06:23:36;8.77;;;3.97;;
46006;SDS011;31738;50.188;8.524;2022-12-29T06:26:03;7.38;;;3.78;;
46006;SDS011;31738;50.188;8.524;2022-12-29T06:28:28;6.20;;;3.78;;
46006;SDS011;31738;50.188;8.524;2022-12-29T06:30:54;7.35;;;3.20;;
46006;SDS011;31738;50.188;8.524;2022-12-29T06:33:20;6.53;;;3.33;;
46006;SDS011;31738;50.188;8.524;2022-12-29T06:35:46;4.93;;;3.38;;
46006;SDS011;31738;50.188;8.524;2022-12-29T06:38:11;6.38;;;4.13;;
46006;SDS011;31738;50.188;8.524;2022-12-29T06:40:37;8.75;;;3.40;;
46006;SDS011;31738;50.188;8.524;2022-12-29T06:43:29;8.68;;;3.30;;
46006;SDS011;31738;50.188;8.524;2022-12-29T06:46:18;6.55;;;3.15;;
46006;SDS011;31738;50.188;8.524;2022-12-29T06:48:43;5.88;;;3.28;;
46006;SDS011;31738;50.188;8.524;2022-12-29T06:51:09;7.47;;;3.45;;
46006;SDS011;31738;50.188;8.524;2022-12-29T06:53:34;8.00;;;3.40;;
46006;SDS011;31738;50.188;8.524;2022-12-29T06:56:00;9.05;;;3.58;;
46006;SDS011;31738;50.188;8.524;2022-12-29T06:58:25;5.95;;;3.33;;
46006;SDS011;31738;50.188;8.524;2022-12-29T07:00:51;6.47;;;3.40;;
46006;SDS011;31738;50.188;8.524;2022-12-29T07:03:16;8.07;;;3.10;;
46006;SDS011;31738;50.188;8.524;2022-12-29T07:05:42;5.57;;;3.28;;
46006;SDS011;31738;50.188;8.524;2022-12-29T07:08:07;6.05;;;3.35;;
46006;SDS011;31738;50.188;8.524;2022-12-29T07:10:33;7.53;;;3.75;;
46006;SDS011;31738;50.188;8.524;2022-12-29T07:12:58;7.53;;;3.65;;
46006;SDS011;31738;50.188;8.524;2022-12-29T07:15:24;8.57;;;3.70;;
46006;SDS011;31738;50.188;8.524;2022-12-29T07:17:49;9.65;;;3.88;;
46006;SDS011;31738;50.188;8.524;2022-12-29T07:20:15;10.32;;;3.67;;
46006;SDS011;31738;50.188;8.524;2022-12-29T07:22:41;5.95;;;3.75;;
46006;SDS011;31738;50.188;8.524;2022-12-29T07:25:06;6.45;;;3.15;;
46006;SDS011;31738;50.188;8.524;2022-12-29T07:27:32;8.35;;;3.15;;
46006;SDS011;31738;50.188;8.524;2022-12-29T07:29:58;10.10;;;4.10;;
46006;SDS011;31738;50.188;8.524;2022-12-29T07:32:23;6.40;;;3.78;;
46006;SDS011;31738;50.188;8.524;2022-12-29T07:34:49;8.13;;;3.88;;
46006;SDS011;31738;50.188;8.524;2022-12-29T07:37:14;8.07;;;3.45;;
46006;SDS011;31738;50.188;8.524;2022-12-29T07:39:40;9.38;;;3.60;;
46006;SDS011;31738;50.188;8.524;2022-12-29T07:42:06;5.70;;;3.88;;
46006;SDS011;31738;50.188;8.524;2022-12-29T07:44:40;7.30;;;3.70;;
46006;SDS011;31738;50.188;8.524;2022-12-29T07:47:17;7.60;;;3.67;;
46006;SDS011;31738;50.188;8.524;2022-12-29T07:49:43;7.95;;;3.75;;
46006;SDS011;31738;50.188;8.524;2022-12-29T07:52:08;6.70;;;3.60;;
46006;SDS011;31738;50.188;8.524;2022-12-29T07:54:34;6.30;;;3.35;;
46006;SDS011;31738;50.188;8.524;2022-12-29T07:56:59;8.20;;;3.63;;
46006;SDS011;31738;50.188;8.524;2022-12-29T07:59:25;8.27;;;4.07;;
46006;SDS011;31738;50.188;8.524;2022-12-29T08:01:51;5.82;;;3.95;;
46006;SDS011;31738;50.188;8.524;2022-12-29T08:04:17;8.00;;;4.10;;
46006;SDS011;31738;50.188;8.524;2022-12-29T08:06:42;8.20;;;3.88;;
46006;SDS011;31738;50.188;8.524;2022-12-29T08:09:08;6.15;;;3.70;;
46006;SDS011;31738;50.188;8.524;2022-12-29T08:11:34;8.32;;;3.85;;
46006;SDS011;31738;50.188;8.524;2022-12-29T08:13:59;6.15;;;3.42;;
46006;SDS011;31738;50.188;8.524;2022-12-29T08:16:25;6.32;;;3.33;;
46006;SDS011;31738;50.188;8.524;2022-12-29T08:18:50;7.25;;;3.78;;
46006;SDS011;31738;50.188;8.524;2022-12-29T08:21:15;7.38;;;3.85;;
46006;SDS011;31738;50.188;8.524;2022-12-29T08:23:41;9.27;;;4.13;;
46006;SDS011;31738;50.188;8.524;2022-12-29T08:26:06;6.97;;;3.58;;
46006;SDS011;31738;50.188;8.524;2022-12-29T08:28:35;5.68;;;3.65;;
46006;SDS011;31738;50.188;8.524;2022-12-29T08:31:01;7.38;;;3.50;;
46006;SDS011;31738;50.188;8.524;2022-12-29T08:33:28;11.02;;;4.20;;
46006;SDS011;31738;50.188;8.524;2022-12-29T08:36:00;6.47;;;3.53;;
46006;SDS011;31738;50.188;8.524;2022-12-29T08:38:28;6.72;;;4.30;;
46006;SDS011;31738;50.188;8.524;2022-12-29T08:40:54;8.45;;;4.05;;
46006;SDS011;31738;50.188;8.524;2022-12-29T08:43:20;9.57;;;3.70;;
46006;SDS011;31738;50.188;8.524;2022-12-29T08:45:45;8.82;;;4.18;;
46006;SDS011;31738;50.188;8.524;2022-12-29T08:48:11;8.77;;;4.20;;
46006;SDS011;31738;50.188;8.524;2022-12-29T08:50:36;10.20;;;4.40;;
46006;SDS011;31738;50.188;8.524;2022-12-29T08:53:02;12.65;;;5.85;;
46006;SDS011;31738;50.188;8.524;2022-12-29T08:55:27;17.00;;;7.65;;
46006;SDS011;31738;50.188;8.524;2022-12-29T08:57:53;19.52;;;10.50;;
46006;SDS011;31738;50.188;8.524;2022-12-29T09:00:20;21.42;;;11.77;;
46006;SDS011;31738;50.188;8.524;2022-12-29T09:02:46;22.95;;;13.55;;
46006;SDS011;31738;50.188;8.524;2022-12-29T09:05:11;22.80;;;12.63;;
46006;SDS011;31738;50.188;8.524;2022-12-29T09:07:37;15.27;;;9.18;;
46006;SDS011;31738;50.188;8.524;2022-12-29T09:10:03;15.18;;;7.30;;
46006;SDS011;31738;50.188;8.524;2022-12-29T09:12:29;12.80;;;6.68;;
46006;SDS011;31738;50.188;8.524;2022-12-29T09:14:54;9.60;;;4.80;;
46006;SDS011;31738;50.188;8.524;2022-12-29T09:17:20;9.88;;;4.68;;
46006;SDS011;31738;50.188;8.524;2022-12-29T09:20:04;9.75;;;5.25;;
46006;SDS011;31738;50.188;8.524;2022-12-29T09:22:30;8.68;;;4.80;;
46006;SDS011;31738;50.188;8.524;2022-12-29T09:24:55;11.43;;;5.20;;
46006;SDS011;31738;50.188;8.524;2022-12-29T09:27:21;9.88;;;5.57;;
46006;SDS011;31738;50.188;8.524;2022-12-29T09:29:46;9.65;;;5.53;;
46006;SDS011;31738;50.188;8.524;2022-12-29T09:32:12;8.73;;;4.53;;
46006;SDS011;31738;50.188;8.524;2022-12-29T09:34:37;9.70;;;4.88;;
46006;SDS011;31738;50.188;8.524;2022-12-29T09:37:03;10.25;;;5.53;;
46006;SDS011;31738;50.188;8.524;2022-12-29T09:39:28;10.60;;;5.20;;
46006;SDS011;31738;50.188;8.524;2022-12-29T09:45:03;11.63;;;5.00;;
46006;SDS011;31738;50.188;8.524;2022-12-29T09:47:40;9.30;;;4.85;;
46006;SDS011;31738;50.188;8.524;2022-12-29T09:53:09;9.45;;;4.20;;
46006;SDS011;31738;50.188;8.524;2022-12-29T09:55:48;8.25;;;4.32;;
46006;SDS011;31738;50.188;8.524;2022-12-29T09:58:24;6.28;;;3.17;;
46006;SDS011;31738;50.188;8.524;2022-12-29T10:06:17;4.03;;;2.70;;
46006;SDS011;31738;50.188;8.524;2022-12-29T10:11:52;5.68;;;3.10;;
46006;SDS011;31738;50.188;8.524;2022-12-29T10:17:27;4.63;;;2.70;;
46006;SDS011;31738;50.188;8.524;2022-12-29T10:19:57;5.70;;;2.65;;
46006;SDS011;31738;50.188;8.524;2022-12-29T10:25:22;6.97;;;3.27;;
46006;SDS011;31738;50.188;8.524;2022-12-29T10:27:50;5.40;;;3.30;;
46006;SDS011;31738;50.188;8.524;2022-12-29T10:30:18;7.45;;;4.00;;
46006;SDS011;31738;50.188;8.524;2022-12-29T10:32:49;8.23;;;4.70;;
46006;SDS011;31738;50.188;8.524;2022-12-29T10:35:22;11.10;;;5.55;;
46006;SDS011;31738;50.188;8.524;2022-12-29T10:37:55;12.60;;;6.30;;
46006;SDS011;31738;50.188;8.524;2022-12-29T10:40:31;9.05;;;5.47;;
46006;SDS011;31738;50.188;8.524;2022-12-29T10:43:05;10.60;;;5.95;;
46006;SDS011;31738;50.188;8.524;2022-12-29T10:45:46;5.97;;;3.67;;
46006;SDS011;31738;50.188;8.524;2022-12-29T10:48:19;5.88;;;3.63;;
46006;SDS011;31738;50.188;8.524;2022-12-29T10:50:48;5.88;;;3.17;;
46006;SDS011;31738;50.188;8.524;2022-12-29T10:53:22;3.80;;;2.17;;
46006;SDS011;31738;50.188;8.524;2022-12-29T10:55:52;3.05;;;2.05;;
46006;SDS011;31738;50.188;8.524;2022-12-29T10:58:18;3.35;;;1.70;;
46006;SDS011;31738;50.188;8.524;2022-12-29T11:00:49;5.85;;;1.70;;
46006;SDS011;31738;50.188;8.524;2022-12-29T11:03:27;2.10;;;1.30;;
46006;SDS011;31738;50.188;8.524;2022-12-29T11:06:17;3.92;;;1.65;;
46006;SDS011;31738;50.188;8.524;2022-12-29T11:08:52;5.32;;;1.70;;
46006;SDS011;31738;50.188;8.524;2022-12-29T11:11:28;2.33;;;1.05;;
46006;SDS011;31738;50.188;8.524;2022-12-29T11:14:07;3.25;;;1.13;;
46006;SDS011;31738;50.188;8.524;2022-12-29T11:16:33;2.65;;;1.17;;
46006;SDS011;31738;50.188;8.524;2022-12-29T11:19:00;3.30;;;1.20;;
46006;SDS011;31738;50.188;8.524;2022-12-29T11:21:27;2.22;;;1.17;;
46006;SDS011;31738;50.188;8.524;2022-12-29T11:24:02;2.10;;;1.13;;
46006;SDS011;31738;50.188;8.524;2022-12-29T11:26:29;1.83;;;0.80;;
46006;SDS011;31738;50.188;8.524;2022-12-29T11:31:46;3.70;;;1.10;;
46006;SDS011;31738;50.188;8.524;2022-12-29T11:34:46;4.72;;;1.10;;
46006;SDS011;31738;50.188;8.524;2022-12-29T11:37:06;4.15;;;1.10;;
46006;SDS011;31738;50.188;8.524;2022-12-29T11:42:35;6.22;;;1.45;;
46006;SDS011;31738;50.188;8.524;2022-12-29T11:45:03;7.75;;;1.80;;
46006;SDS011;31738;50.188;8.524;2022-12-29T11:47:31;6.72;;;2.53;;
46006;SDS011;31738;50.188;8.524;2022-12-29T11:49:59;4.30;;;1.35;;
46006;SDS011;31738;50.188;8.524;2022-12-29T11:52:29;6.38;;;1.00;;
46006;SDS011;31738;50.188;8.524;2022-12-29T11:55:00;4.38;;;1.08;;
46006;SDS011;31738;50.188;8.524;2022-12-29T11:57:27;2.33;;;0.95;;
46006;SDS011;31738;50.188;8.524;2022-12-29T11:59:55;3.20;;;1.27;;
46006;SDS011;31738;50.188;8.524;2022-12-29T12:05:17;6.18;;;1.15;;
46006;SDS011;31738;50.188;8.524;2022-12-29T12:08:09;3.13;;;0.95;;
46006;SDS011;31738;50.188;8.524;2022-12-29T12:10:44;1.98;;;0.57;;
46006;SDS011;31738;50.188;8.524;2022-12-29T12:16:49;5.47;;;0.90;;
46006;SDS011;31738;50.188;8.524;2022-12-29T12:22:10;2.08;;;0.60;;
46006;SDS011;31738;50.188;8.524;2022-12-29T12:24:48;1.38;;;0.57;;
46006;SDS011;31738;50.188;8.524;2022-12-29T12:30:02;4.22;;;0.65;;
46006;SDS011;31738;50.188;8.524;2022-12-29T12:35:13;3.40;;;0.88;;
46006;SDS011;31738;50.188;8.524;2022-12-29T12:46:05;4.35;;;1.20;;
46006;SDS011;31738;50.188;8.524;2022-12-29T12:51:47;5.18;;;1.00;;
46006;SDS011;31738;50.188;8.524;2022-12-29T12:54:32;5.57;;;1.30;;
46006;SDS011;31738;50.188;8.524;2022-12-29T12:57:09;5.38;;;1.00;;
46006;SDS011;31738;50.188;8.524;2022-12-29T13:00:03;3.30;;;0.60;;
46006;SDS011;31738;50.188;8.524;2022-12-29T13:13:48;2.10;;;0.90;;
46006;SDS011;31738;50.188;8.524;2022-12-29T13:16:41;2.13;;;0.70;;
46006;SDS011;31738;50.188;8.524;2022-12-29T13:30:21;4.05;;;0.93;;
46006;SDS011;31738;50.188;8.524;2022-12-29T13:36:02;10.00;;;2.40;;
46006;SDS011;31738;50.188;8.524;2022-12-29T13:38:51;36.08;;;4.13;;
46006;SDS011;31738;50.188;8.524;2022-12-29T13:41:30;8.38;;;2.47;;
46006;SDS011;31738;50.188;8.524;2022-12-29T13:44:01;7.22;;;1.70;;
46006;SDS011;31738;50.188;8.524;2022-12-29T13:46:31;12.90;;;3.17;;
46006;SDS011;31738;50.188;8.524;2022-12-29T13:49:21;8.90;;;2.55;;
46006;SDS011;31738;50.188;8.524;2022-12-29T13:51:50;6.28;;;1.90;;
46006;SDS011;31738;50.188;8.524;2022-12-29T13:54:30;3.47;;;1.63;;
46006;SDS011;31738;50.188;8.524;2022-12-29T13:59:54;5.57;;;1.73;;
46006;SDS011;31738;50.188;8.524;2022-12-29T14:05:03;5.57;;;1.20;;
46006;SDS011;31738;50.188;8.524;2022-12-29T14:07:56;4.07;;;1.27;;
46006;SDS011;31738;50.188;8.524;2022-12-29T14:13:02;6.90;;;1.40;;
46006;SDS011;31738;50.188;8.524;2022-12-29T14:15:28;4.35;;;1.10;;
46006;SDS011;31738;50.188;8.524;2022-12-29T14:18:04;4.85;;;1.45;;
46006;SDS011;31738;50.188;8.524;2022-12-29T14:20:37;5.07;;;1.23;;
46006;SDS011;31738;50.188;8.524;2022-12-29T14:28:26;6.97;;;1.45;;
46006;SDS011;31738;50.188;8.524;2022-12-29T14:31:02;7.88;;;2.50;;
46006;SDS011;31738;50.188;8.524;2022-12-29T14:33:30;7.03;;;2.75;;
46006;SDS011;31738;50.188;8.524;2022-12-29T14:36:18;12.40;;;2.35;;
46006;SDS011;31738;50.188;8.524;2022-12-29T14:38:46;2.97;;;1.25;;
46006;SDS011;31738;50.188;8.524;2022-12-29T14:41:17;5.63;;;1.40;;
46006;SDS011;31738;50.188;8.524;2022-12-29T14:49:19;5.63;;;1.42;;
46006;SDS011;31738;50.188;8.524;2022-12-29T14:51:47;3.05;;;0.82;;
46006;SDS011;31738;50.188;8.524;2022-12-29T14:57:06;3.85;;;1.55;;
46006;SDS011;31738;50.188;8.524;2022-12-29T14:59:36;5.25;;;1.00;;
46006;SDS011;31738;50.188;8.524;2022-12-29T15:02:03;3.60;;;0.85;;
46006;SDS011;31738;50.188;8.524;2022-12-29T15:04:37;3.50;;;1.13;;
46006;SDS011;31738;50.188;8.524;2022-12-29T15:07:04;7.10;;;1.25;;
46006;SDS011;31738;50.188;8.524;2022-12-29T15:09:35;4.40;;;1.27;;
46006;SDS011;31738;50.188;8.524;2022-12-29T15:14:54;4.07;;;1.15;;
46006;SDS011;31738;50.188;8.524;2022-12-29T15:17:26;6.55;;;1.23;;
46006;SDS011;31738;50.188;8.524;2022-12-29T15:19:54;7.50;;;1.48;;
46006;SDS011;31738;50.188;8.524;2022-12-29T15:22:22;4.18;;;1.27;;
46006;SDS011;31738;50.188;8.524;2022-12-29T15:24:49;5.63;;;1.33;;
46006;SDS011;31738;50.188;8.524;2022-12-29T15:27:19;5.95;;;1.23;;
46006;SDS011;31738;50.188;8.524;2022-12-29T15:29:46;5.25;;;1.60;;
46006;SDS011;31738;50.188;8.524;2022-12-29T15:32:16;5.18;;;1.25;;
46006;SDS011;31738;50.188;8.524;2022-12-29T15:34:58;3.70;;;1.45;;
46006;SDS011;31738;50.188;8.524;2022-12-29T15:37:32;7.00;;;1.75;;
46006;SDS011;31738;50.188;8.524;2022-12-29T15:40:01;7.95;;;1.65;;
46006;SDS011;31738;50.188;8.524;2022-12-29T15:45:43;8.38;;;1.20;;
46006;SDS011;31738;50.188;8.524;2022-12-29T15:48:27;10.40;;;1.58;;
46006;SDS011;31738;50.188;8.524;2022-12-29T15:50:56;4.75;;;1.20;;
46006;SDS011;31738;50.188;8.524;2022-12-29T15:53:24;10.25;;;1.25;;
46006;SDS011;31738;50.188;8.524;2022-12-29T15:55:54;5.53;;;1.10;;
46006;SDS011;31738;50.188;8.524;2022-12-29T15:58:23;3.30;;;1.00;;
46006;SDS011;31738;50.188;8.524;2022-12-29T16:01:01;5.72;;;1.10;;
46006;SDS011;31738;50.188;8.524;2022-12-29T16:03:27;4.38;;;1.05;;
46006;SDS011;31738;50.188;8.524;2022-12-29T16:05:58;3.70;;;0.90;;
46006;SDS011;31738;50.188;8.524;2022-12-29T16:11:04;7.43;;;1.30;;
46006;SDS011;31738;50.188;8.524;2022-12-29T16:13:50;6.00;;;1.35;;
46006;SDS011;31738;50.188;8.524;2022-12-29T16:16:28;4.45;;;1.17;;
46006;SDS011;31738;50.188;8.524;2022-12-29T16:18:56;5.28;;;1.17;;
46006;SDS011;31738;50.188;8.524;2022-12-29T16:21:24;4.97;;;0.95;;
46006;SDS011;31738;50.188;8.524;2022-12-29T16:23:57;7.75;;;1.42;;
46006;SDS011;31738;50.188;8.524;2022-12-29T16:26:26;7.90;;;1.13;;
46006;SDS011;31738;50.188;8.524;2022-12-29T16:28:56;4.75;;;1.23;;
46006;SDS011;31738;50.188;8.524;2022-12-29T16:31:24;5.22;;;1.30;;
46006;SDS011;31738;50.188;8.524;2022-12-29T16:33:57;5.38;;;1.48;;
46006;SDS011;31738;50.188;8.524;2022-12-29T16:41:40;10.25;;;1.35;;
46006;SDS011;31738;50.188;8.524;2022-12-29T16:44:16;10.48;;;1.30;;
46006;SDS011;31738;50.188;8.524;2022-12-29T16:49:31;7.38;;;1.15;;
46006;SDS011;31738;50.188;8.524;2022-12-29T16:51:58;8.05;;;1.20;;
46006;SDS011;31738;50.188;8.524;2022-12-29T16:54:24;8.13;;;1.00;;
46006;SDS011;31738;50.188;8.524;2022-12-29T16:56:55;9.35;;;1.05;;
46006;SDS011;31738;50.188;8.524;2022-12-29T17:01:50;3.80;;;1.30;;
46006;SDS011;31738;50.188;8.524;2022-12-29T17:04:15;7.38;;;1.40;;
46006;SDS011;31738;50.188;8.524;2022-12-29T17:06:40;4.95;;;1.30;;
46006;SDS011;31738;50.188;8.524;2022-12-29T17:09:39;5.22;;;1.50;;
46006;SDS011;31738;50.188;8.524;2022-12-29T17:11:58;5.05;;;1.23;;
46006;SDS011;31738;50.188;8.524;2022-12-29T17:14:35;6.85;;;1.77;;
46006;SDS011;31738;50.188;8.524;2022-12-29T17:17:17;9.20;;;2.40;;
46006;SDS011;31738;50.188;8.524;2022-12-29T17:19:54;8.95;;;2.00;;
46006;SDS011;31738;50.188;8.524;2022-12-29T17:22:25;5.68;;;2.20;;
46006;SDS011;31738;50.188;8.524;2022-12-29T17:24:52;9.15;;;1.90;;
46006;SDS011;31738;50.188;8.524;2022-12-29T17:27:37;8.35;;;2.00;;
46006;SDS011;31738;50.188;8.524;2022-12-29T17:30:12;9.77;;;1.77;;
46006;SDS011;31738;50.188;8.524;2022-12-29T17:32:50;5.40;;;1.40;;
46006;SDS011;31738;50.188;8.524;2022-12-29T17:35:26;9.90;;;1.48;;
46006;SDS011;31738;50.188;8.524;2022-12-29T17:37:52;6.97;;;1.70;;
46006;SDS011;31738;50.188;8.524;2022-12-29T17:40:19;6.45;;;1.08;;
46006;SDS011;31738;50.188;8.524;2022-12-29T17:42:47;9.55;;;1.15;;
46006;SDS011;31738;50.188;8.524;2022-12-29T17:45:14;6.93;;;1.33;;
46006;SDS011;31738;50.188;8.524;2022-12-29T17:47:42;6.03;;;1.38;;